マレ の空港の天気 - METARとTAF

マレ国際空港 ( VRMM / MLE ) - モルディブ Hulhule Island, North Male Atoll
飛行場実況気象(Metar)
観測時間05/22 20:00 MVT (05/22 15:00 UTC)
風向・風速南西 6m/s
視程10km以上
天気現象
少しの雲 雲底高度 520m
全天の8割程度の雲 雲底高度 7620m
気温28℃
湿度84%
気圧1009hPa
METARVRMM 221500Z 22011KT 9999 FEW017TCU BKN250 28/25 Q1009 TEMPO 4000 -TSRA
過去の天気等 Google飛行場航空写真 Wunderground天気予報

過去48時間のMETAR

飛行場予報(TAF)
発表時間: 5/22 16:00 MVT (5/22 11:00 UTC)
予報対象時間: 22日17時 MVT ~ 23日23時 MVT
風向・風速南西 5m/s
視程9,000m
少しの塔状積雲 雲底高度 520m
全天の8割程度の雲 雲底高度 3,350m
22日17時 MVT ~ 22日19時 MVT に徐々に
視程5,000m
天気現象弱い雨
少しの積乱雲 雲底高度 520m
22日19時 MVT ~ 23日1時 MVT に一時的に
風向・風速西 8m/s 瞬間風速 14m/s
視程3,000m
TAF VRMM 221100Z 2212/2318 23009KT 9000 FEW017TCU BKN110
BECMG 2212/2214 5000 -RA FEW017CB
TEMPO 2214/2220 27015G28KT 3000 TSRA/SHRA SCT016CB